Weather at Gorizia Duca d'Aosta Airport

Public forecast

Using degrees Celsius for public forecast. Weather courtesy of forecast.io.

Closest aviation weather report (METAR) to Gorizia Duca d'Aosta Airport

Closest report is Trieste–Friuli Venezia Giulia Airport, 7.1 nm (13.2 km) SW.

2024/05/28 14:20 (retrieved 28 minutes ago)

LIPQ 281420Z AUTO 25006KT 220V280 9999 SCT110/// 25/16 Q1013

Closest aviation forecast (TAF) to Gorizia Duca d'Aosta Airport

Closest forecast is Trieste–Friuli Venezia Giulia Airport, 7.1 nm (13.2 km) SW.

2024/05/28 12:21 (retrieved 2 hours ago)

TAF LIPQ 281100Z 2812/2912 VRB06KT 9999 SCT025 PROB40 TEMPO 2813/2816 TSRA